createdAt,value
2017-02-18T00:00:28.484Z,0
2017-02-18T00:01:28.868Z,0
2017-02-18T00:02:28.874Z,0
2017-02-18T00:03:28.838Z,0
2017-02-18T00:04:28.821Z,0
2017-02-18T00:05:28.433Z,0
2017-02-18T00:06:28.794Z,0
2017-02-18T00:07:28.794Z,0
2017-02-18T00:08:28.798Z,0
2017-02-18T00:09:28.412Z,0
2017-02-18T00:10:28.763Z,0
2017-02-18T00:11:28.758Z,0
2017-02-18T00:12:28.772Z,0
2017-02-18T00:13:28.798Z,0
2017-02-18T00:14:28.739Z,0
2017-02-18T00:15:28.747Z,0
2017-02-18T00:16:28.708Z,0
2017-02-18T00:17:28.706Z,0
2017-02-18T00:18:28.689Z,0
2017-02-18T00:19:28.737Z,0
2017-02-18T00:20:28.662Z,0
2017-02-18T00:21:28.656Z,0
2017-02-18T00:22:28.648Z,0
2017-02-18T00:23:28.629Z,0
2017-02-18T00:24:28.632Z,0
2017-02-18T00:25:28.609Z,0
2017-02-18T00:26:28.597Z,0
2017-02-18T00:27:28.604Z,0
2017-02-18T00:28:28.599Z,0
2017-02-18T00:29:28.580Z,0
2017-02-18T00:30:28.577Z,0
2017-02-18T00:31:28.548Z,0
2017-02-18T00:32:28.528Z,0
2017-02-18T00:33:28.531Z,0
2017-02-18T00:34:28.527Z,0
2017-02-18T00:35:28.496Z,0
2017-02-18T00:36:28.501Z,0
2017-02-18T00:37:28.132Z,0
2017-02-18T00:38:28.488Z,0
2017-02-18T00:39:28.466Z,0
2017-02-18T00:40:28.448Z,0
2017-02-18T00:41:28.478Z,0
2017-02-18T00:42:28.031Z,0
2017-02-18T00:43:28.443Z,0
2017-02-18T00:44:28.400Z,0
2017-02-18T00:45:28.425Z,0
2017-02-18T00:46:28.017Z,0
2017-02-18T00:47:28.379Z,0
2017-02-18T00:48:28.372Z,0
2017-02-18T00:49:28.356Z,0
2017-02-18T00:50:28.377Z,0
2017-02-18T00:51:27.953Z,0
2017-02-18T00:52:28.331Z,0
2017-02-18T00:53:28.317Z,0
2017-02-18T00:54:28.306Z,0
2017-02-18T00:55:28.328Z,0
2017-02-18T00:56:27.918Z,0
2017-02-18T00:57:28.303Z,0
2017-02-18T00:58:28.257Z,0
2017-02-18T00:59:28.274Z,0
2017-02-18T01:00:28.246Z,0
2017-02-18T01:01:28.243Z,0
2017-02-18T01:02:28.209Z,0
2017-02-18T01:03:28.222Z,0
2017-02-18T01:04:28.187Z,0
2017-02-18T01:05:27.803Z,0
2017-02-18T01:06:27.788Z,0
2017-02-18T01:07:27.774Z,0
2017-02-18T01:08:27.791Z,0
2017-02-18T01:09:28.148Z,0
2017-02-18T01:10:27.740Z,0
2017-02-18T01:11:27.737Z,0
2017-02-18T01:12:27.737Z,0
2017-02-18T01:13:27.739Z,0
2017-02-18T01:14:28.175Z,0
2017-02-18T01:15:28.067Z,0
2017-02-18T01:16:28.087Z,0
2017-02-18T01:17:28.096Z,0
2017-02-18T01:18:28.043Z,0
2017-02-18T01:19:28.039Z,0
2017-02-18T01:20:28.043Z,0
2017-02-18T01:21:28.096Z,0
2017-02-18T01:22:28.025Z,0
2017-02-18T01:23:27.983Z,0
2017-02-18T01:24:27.974Z,0
2017-02-18T01:25:27.975Z,0
2017-02-18T01:26:27.990Z,0
2017-02-18T01:27:27.950Z,0
2017-02-18T01:28:27.926Z,0
2017-02-18T01:29:27.926Z,0
2017-02-18T01:30:27.925Z,0
2017-02-18T01:31:27.907Z,0
2017-02-18T01:32:27.903Z,0
2017-02-18T01:33:27.886Z,0
2017-02-18T01:34:27.882Z,0
2017-02-18T01:35:27.887Z,0
2017-02-18T01:36:27.859Z,0
2017-02-18T01:37:27.841Z,0
2017-02-18T01:38:28.143Z,0
2017-02-18T01:39:27.827Z,0
2017-02-18T01:40:27.825Z,0
2017-02-18T01:41:27.804Z,0
2017-02-18T01:42:27.794Z,0
2017-02-18T01:43:27.841Z,0
2017-02-18T01:44:27.780Z,0
2017-02-18T01:45:27.768Z,0
2017-02-18T01:46:27.762Z,0
2017-02-18T01:47:27.753Z,0
2017-02-18T01:48:27.740Z,0
2017-02-18T01:49:27.714Z,0
2017-02-18T01:50:27.704Z,0
2017-02-18T01:51:27.777Z,0
2017-02-18T01:52:27.697Z,0
2017-02-18T01:53:27.694Z,0
2017-02-18T01:54:27.670Z,0
2017-02-18T01:55:27.637Z,0
2017-02-18T01:56:27.644Z,0
2017-02-18T01:57:27.643Z,0
2017-02-18T01:58:27.683Z,0
2017-02-18T01:59:27.616Z,0
2017-02-18T02:00:27.615Z,0
2017-02-18T02:01:27.597Z,0
2017-02-18T02:02:27.573Z,0
2017-02-18T02:03:27.561Z,0
2017-02-18T02:04:27.576Z,0
2017-02-18T02:05:27.552Z,0
2017-02-18T02:06:27.538Z,0
2017-02-18T02:07:27.523Z,0
2017-02-18T02:08:27.539Z,0
2017-02-18T02:09:27.509Z,0
2017-02-18T02:10:27.497Z,0
2017-02-18T02:11:27.473Z,0
2017-02-18T02:12:27.490Z,0
2017-02-18T02:13:27.517Z,0
2017-02-18T02:14:27.465Z,0
2017-02-18T02:15:27.439Z,0
2017-02-18T02:16:27.445Z,0
2017-02-18T02:17:27.436Z,0
2017-02-18T02:18:27.025Z,0
2017-02-18T02:19:27.416Z,0
2017-02-18T02:20:27.389Z,0
2017-02-18T02:21:27.389Z,0
2017-02-18T02:22:27.380Z,0
2017-02-18T02:23:27.344Z,0
2017-02-18T02:24:26.958Z,0
2017-02-18T02:25:27.353Z,0
2017-02-18T02:26:27.315Z,0
2017-02-18T02:27:27.302Z,0
2017-02-18T02:28:27.313Z,0
2017-02-18T02:29:27.276Z,0
2017-02-18T02:30:27.279Z,0
2017-02-18T02:31:27.288Z,0
2017-02-18T02:32:27.305Z,0
2017-02-18T02:33:27.277Z,0
2017-02-18T02:34:27.543Z,0
2017-02-18T02:35:27.237Z,0
2017-02-18T02:36:27.221Z,0
2017-02-18T02:37:27.417Z,0
2017-02-18T02:38:27.213Z,0
2017-02-18T02:39:27.188Z,0
2017-02-18T02:40:27.185Z,0
2017-02-18T02:41:27.158Z,0
2017-02-18T02:42:26.757Z,0
2017-02-18T02:43:27.157Z,0
2017-02-18T02:44:27.131Z,0
2017-02-18T02:45:27.118Z,0
2017-02-18T02:46:27.159Z,0
2017-02-18T02:47:27.121Z,0
2017-02-18T02:48:27.103Z,0
2017-02-18T02:49:26.675Z,0
2017-02-18T02:50:27.076Z,0
2017-02-18T02:51:27.048Z,0
2017-02-18T02:52:27.062Z,0
2017-02-18T02:53:27.031Z,0
2017-02-18T02:54:27.040Z,0
2017-02-18T02:55:27.015Z,0
2017-02-18T02:56:26.992Z,0
2017-02-18T02:57:26.985Z,0
2017-02-18T02:58:27.010Z,0
2017-02-18T02:59:26.972Z,0
2017-02-18T03:00:26.949Z,0
2017-02-18T03:01:26.948Z,0
2017-02-18T03:02:26.929Z,0
2017-02-18T03:03:26.920Z,0
2017-02-18T03:04:26.546Z,0
2017-02-18T03:05:26.897Z,0
2017-02-18T03:06:26.911Z,0
2017-02-18T03:07:26.891Z,0
2017-02-18T03:08:26.858Z,0
2017-02-18T03:09:26.869Z,0
2017-02-18T03:10:26.847Z,0
2017-02-18T03:11:26.841Z,0
2017-02-18T03:12:26.827Z,0
2017-02-18T03:13:26.817Z,0
2017-02-18T03:14:26.807Z,0
2017-02-18T03:15:26.785Z,0
2017-02-18T03:16:26.395Z,0
2017-02-18T03:17:26.773Z,0
2017-02-18T03:18:26.770Z,0
2017-02-18T03:19:27.012Z,0
2017-02-18T03:20:26.734Z,0
2017-02-18T03:21:26.738Z,0
2017-02-18T03:22:26.734Z,0
2017-02-18T03:23:26.303Z,0
2017-02-18T03:24:26.725Z,0
2017-02-18T03:25:26.736Z,0
2017-02-18T03:26:26.665Z,0
2017-02-18T03:27:26.679Z,0
2017-02-18T03:28:26.649Z,0
2017-02-18T03:29:26.690Z,0
2017-02-18T03:30:26.644Z,0
2017-02-18T03:31:26.631Z,0
2017-02-18T03:32:26.604Z,0
2017-02-18T03:33:26.614Z,0
2017-02-18T03:34:26.588Z,0
2017-02-18T03:35:26.602Z,0
2017-02-18T03:36:26.585Z,0
2017-02-18T03:37:26.554Z,0
2017-02-18T03:38:26.569Z,0
2017-02-18T03:39:26.542Z,0
2017-02-18T03:40:26.558Z,0
2017-02-18T03:41:26.498Z,0
2017-02-18T03:42:26.498Z,0
2017-02-18T03:43:26.480Z,0
2017-02-18T03:44:26.484Z,0
2017-02-18T03:45:26.487Z,0
2017-02-18T03:46:26.470Z,0
2017-02-18T03:47:26.437Z,0
2017-02-18T03:48:26.429Z,0
2017-02-18T03:49:26.021Z,0
2017-02-18T03:50:26.437Z,0
2017-02-18T03:51:26.415Z,0
2017-02-18T03:52:26.401Z,0
2017-02-18T03:53:26.392Z,0
2017-02-18T03:54:26.394Z,0
2017-02-18T03:55:26.351Z,0
2017-02-18T03:56:26.367Z,0
2017-02-18T03:57:26.415Z,0
2017-02-18T03:58:26.340Z,0
2017-02-18T03:59:26.310Z,0
2017-02-18T04:00:26.310Z,0
2017-02-18T04:01:26.319Z,0
2017-02-18T04:02:26.289Z,0
2017-02-18T04:03:26.275Z,0
2017-02-18T04:04:26.259Z,0
2017-02-18T04:05:26.240Z,0
2017-02-18T04:06:26.259Z,0
2017-02-18T04:07:25.845Z,0
2017-02-18T04:08:26.230Z,0
2017-02-18T04:09:26.270Z,0
2017-02-18T04:10:26.186Z,0
2017-02-18T04:11:25.843Z,0
2017-02-18T04:12:26.224Z,0
2017-02-18T04:13:26.193Z,0
2017-02-18T04:14:26.176Z,0
2017-02-18T04:15:26.169Z,0
2017-02-18T04:16:26.145Z,0
2017-02-18T04:17:26.127Z,0
2017-02-18T04:18:26.116Z,0
2017-02-18T04:19:26.100Z,0
2017-02-18T04:20:26.105Z,0
2017-02-18T04:21:26.081Z,0
2017-02-18T04:22:26.061Z,0
2017-02-18T04:23:26.050Z,0
2017-02-18T04:24:26.053Z,0
2017-02-18T04:25:25.651Z,0
2017-02-18T04:26:26.021Z,0
2017-02-18T04:27:26.049Z,0
2017-02-18T04:28:26.012Z,0
2017-02-18T04:29:26.010Z,0
2017-02-18T04:30:25.982Z,0
2017-02-18T04:31:25.955Z,0
2017-02-18T04:32:25.961Z,0
2017-02-18T04:33:25.568Z,0
2017-02-18T04:34:25.943Z,0
2017-02-18T04:35:25.933Z,0
2017-02-18T04:36:25.929Z,0
2017-02-18T04:37:25.534Z,0
2017-02-18T04:38:25.896Z,0
2017-02-18T04:39:25.506Z,0
2017-02-18T04:40:25.880Z,0
2017-02-18T04:41:25.861Z,0
2017-02-18T04:42:25.875Z,0
2017-02-18T04:43:25.847Z,0
2017-02-18T04:44:25.818Z,0
2017-02-18T04:45:25.822Z,0
2017-02-18T04:46:25.799Z,0
2017-02-18T04:47:25.819Z,0
2017-02-18T04:48:25.401Z,0
2017-02-18T04:49:25.776Z,0
2017-02-18T04:50:25.791Z,0
2017-02-18T04:51:25.767Z,0
2017-02-18T04:52:25.738Z,0
2017-02-18T04:53:25.740Z,0
2017-02-18T04:54:25.771Z,0
2017-02-18T04:55:25.714Z,0
2017-02-18T04:56:25.719Z,0
2017-02-18T04:57:25.667Z,0
2017-02-18T04:58:25.689Z,0
2017-02-18T04:59:25.682Z,0
2017-02-18T05:00:25.281Z,0
2017-02-18T05:01:25.662Z,0
2017-02-18T05:02:25.653Z,0
2017-02-18T05:03:25.622Z,0
2017-02-18T05:04:25.603Z,0
2017-02-18T05:05:25.610Z,0
2017-02-18T05:06:25.597Z,0
2017-02-18T05:07:25.619Z,0
2017-02-18T05:08:25.555Z,0
2017-02-18T05:09:25.547Z,0
2017-02-18T05:10:25.545Z,0
2017-02-18T05:11:25.544Z,0
2017-02-18T05:12:25.535Z,0
2017-02-18T05:13:25.506Z,0
2017-02-18T05:14:25.483Z,0
2017-02-18T05:15:25.492Z,0
2017-02-18T05:16:25.473Z,0
2017-02-18T05:17:25.460Z,0
2017-02-18T05:18:25.443Z,0
2017-02-18T05:19:25.445Z,0
2017-02-18T05:20:25.443Z,0
2017-02-18T05:21:25.427Z,0
2017-02-18T05:22:25.440Z,0
2017-02-18T05:23:25.413Z,0
2017-02-18T05:24:25.391Z,0
2017-02-18T05:25:25.019Z,0
2017-02-18T05:26:25.388Z,0
2017-02-18T05:27:25.367Z,0
2017-02-18T05:28:25.346Z,0
2017-02-18T05:29:25.334Z,0
2017-02-18T05:30:25.343Z,0
2017-02-18T05:31:25.311Z,0
2017-02-18T05:32:25.289Z,0
2017-02-18T05:33:25.359Z,0
2017-02-18T05:34:25.276Z,0
2017-02-18T05:35:25.302Z,0
2017-02-18T05:36:25.273Z,0
2017-02-18T05:37:24.851Z,0
2017-02-18T05:38:25.235Z,0
2017-02-18T05:39:25.221Z,0
2017-02-18T05:40:25.212Z,0
2017-02-18T05:41:25.252Z,0
2017-02-18T05:42:25.187Z,0
2017-02-18T05:43:25.245Z,0
2017-02-18T05:44:25.183Z,0
2017-02-18T05:45:25.152Z,0
2017-02-18T05:46:25.155Z,0
2017-02-18T05:47:25.178Z,0
2017-02-18T05:48:25.128Z,0
2017-02-18T05:49:25.124Z,0
2017-02-18T05:50:25.117Z,0
2017-02-18T05:51:25.090Z,0
2017-02-18T05:52:25.087Z,0
2017-02-18T05:53:25.064Z,0
2017-02-18T05:54:25.061Z,0
2017-02-18T05:55:25.054Z,0
2017-02-18T05:56:24.642Z,0
2017-02-18T05:57:25.044Z,0
2017-02-18T05:58:25.028Z,0
2017-02-18T05:59:25.011Z,0
2017-02-18T06:00:25.009Z,0
2017-02-18T06:01:24.988Z,0
2017-02-18T06:02:24.993Z,0
2017-02-18T06:03:25.007Z,0
2017-02-18T06:04:24.935Z,0
2017-02-18T06:05:24.550Z,0
2017-02-18T06:06:24.937Z,0
2017-02-18T06:07:24.916Z,0
2017-02-18T06:08:24.911Z,0
2017-02-18T06:09:24.893Z,0
2017-02-18T06:10:24.480Z,0
2017-02-18T06:11:24.870Z,0
2017-02-18T06:12:24.891Z,0
2017-02-18T06:13:24.840Z,0
2017-02-18T06:14:24.821Z,0
2017-02-18T06:15:24.814Z,0
2017-02-18T06:16:24.807Z,0
2017-02-18T06:17:24.420Z,0
2017-02-18T06:18:24.787Z,0
2017-02-18T06:19:24.784Z,0
2017-02-18T06:20:24.746Z,0
2017-02-18T06:21:24.775Z,0
2017-02-18T06:22:24.769Z,0
2017-02-18T06:23:24.740Z,0
2017-02-18T06:24:24.715Z,0
2017-02-18T06:25:24.329Z,0
2017-02-18T06:26:24.700Z,0
2017-02-18T06:27:24.740Z,5
2017-02-18T06:28:24.675Z,5
2017-02-18T06:29:24.675Z,5
2017-02-18T06:30:24.655Z,5
2017-02-18T06:31:24.665Z,5
2017-02-18T06:32:24.643Z,0
2017-02-18T06:33:24.631Z,5
2017-02-18T06:34:24.623Z,5
2017-02-18T06:35:24.603Z,5
2017-02-18T06:36:24.599Z,5
2017-02-18T06:37:24.580Z,5
2017-02-18T06:38:24.161Z,5
2017-02-18T06:39:24.160Z,5
2017-02-18T06:40:24.528Z,10
2017-02-18T06:41:24.537Z,10
2017-02-18T06:42:24.525Z,10
2017-02-18T06:43:24.526Z,10
2017-02-18T06:44:24.130Z,10
2017-02-18T06:45:24.093Z,10
2017-02-18T06:46:24.492Z,10
2017-02-18T06:47:24.479Z,10
2017-02-18T06:48:24.461Z,10
2017-02-18T06:49:24.068Z,10
2017-02-18T06:50:24.439Z,10
2017-02-18T06:51:24.054Z,15
2017-02-18T06:52:24.013Z,15
2017-02-18T06:53:24.424Z,15
2017-02-18T06:54:24.439Z,15
2017-02-18T06:55:24.365Z,15
2017-02-18T06:56:24.386Z,20
2017-02-18T06:57:24.359Z,20
2017-02-18T06:58:24.350Z,25
2017-02-18T06:59:24.346Z,25
2017-02-18T07:00:24.336Z,25
2017-02-18T07:01:24.317Z,30
2017-02-18T07:02:24.317Z,30
2017-02-18T07:03:23.912Z,30
2017-02-18T07:04:23.889Z,30
2017-02-18T07:05:24.253Z,30
2017-02-18T07:06:24.262Z,30
2017-02-18T07:07:24.245Z,30
2017-02-18T07:08:24.249Z,30
2017-02-18T07:09:24.226Z,35
2017-02-18T07:10:24.215Z,30
2017-02-18T07:11:23.819Z,35
2017-02-18T07:12:24.198Z,30
2017-02-18T07:13:24.189Z,30
2017-02-18T07:14:24.174Z,30
2017-02-18T07:15:24.176Z,35
2017-02-18T07:16:24.161Z,35
2017-02-18T07:17:23.763Z,35
2017-02-18T07:18:24.118Z,35
2017-02-18T07:19:24.111Z,40
2017-02-18T07:20:24.108Z,40
2017-02-18T07:21:24.106Z,40
2017-02-18T07:22:24.076Z,40
2017-02-18T07:23:24.103Z,35
2017-02-18T07:24:23.697Z,35
2017-02-18T07:25:24.032Z,35
2017-02-18T07:26:24.042Z,35
2017-02-18T07:27:23.260Z,40
2017-02-18T07:28:24.010Z,35
2017-02-18T07:29:24.022Z,25
2017-02-18T07:30:24.021Z,25
2017-02-18T07:31:23.984Z,25
2017-02-18T07:32:23.976Z,25
2017-02-18T07:33:23.569Z,30
2017-02-18T07:34:23.938Z,35
2017-02-18T07:35:23.934Z,40
2017-02-18T07:36:23.933Z,35
2017-02-18T07:37:23.943Z,35
2017-02-18T07:38:23.917Z,40
2017-02-18T07:39:23.895Z,40
2017-02-18T07:40:23.880Z,40
2017-02-18T07:41:23.894Z,45
2017-02-18T07:42:23.865Z,50
2017-02-18T07:43:23.868Z,50
2017-02-18T07:44:23.846Z,50
2017-02-18T07:45:23.458Z,50
2017-02-18T07:46:23.851Z,50
2017-02-18T07:47:23.440Z,45
2017-02-18T07:48:23.795Z,45
2017-02-18T07:49:23.416Z,40
2017-02-18T07:50:23.834Z,45
2017-02-18T07:51:23.749Z,45
2017-02-18T07:52:23.774Z,40
2017-02-18T07:53:22.960Z,40
2017-02-18T07:54:23.741Z,40
2017-02-18T07:55:23.737Z,40
2017-02-18T07:56:23.713Z,45
2017-02-18T07:57:23.739Z,50
2017-02-18T07:58:23.705Z,45
2017-02-18T07:59:23.694Z,55
2017-02-18T08:00:23.676Z,55
2017-02-18T08:01:23.671Z,55
2017-02-18T08:02:23.677Z,60
2017-02-18T08:03:23.657Z,65
2017-02-18T08:04:23.638Z,60
2017-02-18T08:05:23.639Z,60
2017-02-18T08:06:23.618Z,65
2017-02-18T08:07:23.604Z,70
2017-02-18T08:08:23.601Z,75
2017-02-18T08:09:23.598Z,70
2017-02-18T08:10:23.571Z,75
2017-02-18T08:11:23.182Z,75
2017-02-18T08:12:23.163Z,75
2017-02-18T08:13:23.556Z,70
2017-02-18T08:14:23.522Z,70
2017-02-18T08:15:23.200Z,70
2017-02-18T08:16:23.121Z,70
2017-02-18T08:17:23.548Z,70
2017-02-18T08:18:23.126Z,70
2017-02-18T08:19:23.513Z,70
2017-02-18T08:20:23.508Z,60
2017-02-18T08:21:23.527Z,60
2017-02-18T08:22:23.459Z,70
2017-02-18T08:23:23.437Z,80
2017-02-18T08:24:23.068Z,75
2017-02-18T08:25:23.004Z,80
2017-02-18T08:26:23.409Z,85
2017-02-18T08:27:23.016Z,75
2017-02-18T08:28:23.383Z,70
2017-02-18T08:29:23.377Z,80
2017-02-18T08:30:23.653Z,85
2017-02-18T08:31:22.991Z,80
2017-02-18T08:32:22.964Z,70
2017-02-18T08:33:23.337Z,75
2017-02-18T08:34:22.923Z,75
2017-02-18T08:35:23.320Z,70
2017-02-18T08:36:23.308Z,75
2017-02-18T08:37:23.304Z,80
2017-02-18T08:38:23.347Z,85
2017-02-18T08:39:23.270Z,85
2017-02-18T08:40:23.277Z,90
2017-02-18T08:41:22.865Z,90
2017-02-18T08:42:23.258Z,95
2017-02-18T08:43:23.245Z,90
2017-02-18T08:44:23.209Z,90
2017-02-18T08:45:23.204Z,85
2017-02-18T08:46:23.193Z,90
2017-02-18T08:47:23.206Z,85
2017-02-18T08:48:23.165Z,80
2017-02-18T08:49:23.173Z,80
2017-02-18T08:50:23.160Z,75
2017-02-18T08:51:23.147Z,80
2017-02-18T08:52:23.151Z,85
2017-02-18T08:53:23.132Z,85
2017-02-18T08:54:23.175Z,80
2017-02-18T08:55:22.724Z,75
2017-02-18T08:56:23.091Z,75
2017-02-18T08:57:23.090Z,90
2017-02-18T08:58:23.081Z,95
2017-02-18T08:59:22.684Z,100
2017-02-18T09:00:22.675Z,100
2017-02-18T09:01:23.053Z,100
2017-02-18T09:02:23.089Z,105
2017-02-18T09:03:22.633Z,105
2017-02-18T09:04:23.043Z,110
2017-02-18T09:05:22.228Z,115
2017-02-18T09:06:23.015Z,120
2017-02-18T09:07:23.018Z,115
2017-02-18T09:08:22.586Z,120
2017-02-18T09:09:22.605Z,115
2017-02-18T09:10:22.953Z,115
2017-02-18T09:11:22.954Z,115
2017-02-18T09:12:22.556Z,110
2017-02-18T09:13:22.570Z,105
2017-02-18T09:14:22.936Z,105
2017-02-18T09:15:22.919Z,105
2017-02-18T09:16:22.906Z,110
2017-02-18T09:17:22.900Z,115
2017-02-18T09:18:22.489Z,120
2017-02-18T09:19:22.855Z,125
2017-02-18T09:20:22.474Z,135
2017-02-18T09:21:22.511Z,135
2017-02-18T09:22:22.462Z,135
2017-02-18T09:23:22.453Z,135
2017-02-18T09:24:22.809Z,125
2017-02-18T09:25:22.814Z,120
2017-02-18T09:26:22.803Z,115
2017-02-18T09:27:22.773Z,115
2017-02-18T09:28:22.394Z,115
2017-02-18T09:29:22.795Z,115
2017-02-18T09:30:22.762Z,120
2017-02-18T09:31:22.738Z,130
2017-02-18T09:32:22.336Z,130
2017-02-18T09:33:22.738Z,120
2017-02-18T09:34:22.332Z,125
2017-02-18T09:35:22.725Z,120
2017-02-18T09:36:22.997Z,125
2017-02-18T09:37:22.711Z,115
2017-02-18T09:38:22.292Z,130
2017-02-18T09:39:22.673Z,150
2017-02-18T09:40:22.668Z,140
2017-02-18T09:41:22.558Z,135
2017-02-18T09:42:22.652Z,140
2017-02-18T09:43:22.629Z,150
2017-02-18T09:44:22.629Z,155
2017-02-18T09:45:22.204Z,155
2017-02-18T09:46:22.615Z,145
2017-02-18T09:47:22.584Z,135
2017-02-18T09:48:22.578Z,120
2017-02-18T09:49:22.183Z,120
2017-02-18T09:50:22.189Z,130
2017-02-18T09:51:22.163Z,130
2017-02-18T09:52:22.168Z,120
2017-02-18T09:53:22.520Z,110
2017-02-18T09:54:22.136Z,125
2017-02-18T09:55:22.503Z,140
2017-02-18T09:56:22.487Z,140
2017-02-18T09:57:22.494Z,140
2017-02-18T09:58:22.504Z,140
2017-02-18T09:59:22.467Z,145
2017-02-18T10:00:22.479Z,160
2017-02-18T10:01:22.063Z,170
2017-02-18T10:02:22.450Z,170
2017-02-18T10:03:22.431Z,175
2017-02-18T10:04:22.431Z,180
2017-02-18T10:05:22.044Z,175
2017-02-18T10:06:22.414Z,170
2017-02-18T10:07:21.999Z,180
2017-02-18T10:08:22.395Z,175
2017-02-18T10:09:22.378Z,170
2017-02-18T10:10:22.377Z,175
2017-02-18T10:11:22.352Z,165
2017-02-18T10:12:22.356Z,160
2017-02-18T10:13:21.556Z,165
2017-02-18T10:14:22.384Z,170
2017-02-18T10:15:21.941Z,180
2017-02-18T10:16:22.325Z,185
2017-02-18T10:17:21.923Z,190
2017-02-18T10:18:22.282Z,195
2017-02-18T10:19:22.276Z,205
2017-02-18T10:20:22.261Z,210
2017-02-18T10:21:21.877Z,225
2017-02-18T10:22:22.272Z,225
2017-02-18T10:23:22.267Z,220
2017-02-18T10:24:22.246Z,205
2017-02-18T10:25:22.245Z,210
2017-02-18T10:26:22.215Z,210
2017-02-18T10:27:22.223Z,205
2017-02-18T10:28:21.810Z,190
2017-02-18T10:29:22.184Z,195
2017-02-18T10:30:22.207Z,200
2017-02-18T10:31:21.800Z,195
2017-02-18T10:32:21.771Z,190
2017-02-18T10:33:22.164Z,170
2017-02-18T10:34:21.768Z,165
2017-02-18T10:35:22.148Z,170
2017-02-18T10:36:22.134Z,165
2017-02-18T10:37:22.118Z,155
2017-02-18T10:38:22.114Z,140
2017-02-18T10:39:22.093Z,120
2017-02-18T10:40:21.688Z,95
2017-02-18T10:41:22.086Z,90
2017-02-18T10:42:22.076Z,100
2017-02-18T10:43:22.112Z,125
2017-02-18T10:44:22.051Z,130
2017-02-18T10:45:22.059Z,140
2017-02-18T10:46:22.022Z,155
2017-02-18T10:47:22.073Z,165
2017-02-18T10:48:22.010Z,165
2017-02-18T10:49:22.026Z,170
2017-02-18T10:50:21.624Z,160
2017-02-18T10:51:21.981Z,170
2017-02-18T10:52:21.987Z,185
2017-02-18T10:53:21.978Z,190
2017-02-18T10:54:21.590Z,190
2017-02-18T10:55:21.626Z,195
2017-02-18T10:56:21.974Z,200
2017-02-18T10:57:21.935Z,195
2017-02-18T10:58:21.935Z,190
2017-02-18T10:59:21.933Z,150
2017-02-18T11:00:21.910Z,150
2017-02-18T11:01:21.920Z,160
2017-02-18T11:02:21.905Z,200
2017-02-18T11:03:21.536Z,195
2017-02-18T11:04:21.874Z,180
2017-02-18T11:05:21.496Z,190
2017-02-18T11:06:21.859Z,195
2017-02-18T11:07:21.859Z,205
2017-02-18T11:08:21.849Z,215
2017-02-18T11:09:21.837Z,225
2017-02-18T11:10:21.422Z,235
2017-02-18T11:11:21.820Z,240
2017-02-18T11:12:21.810Z,240
2017-02-18T11:13:21.800Z,225
2017-02-18T11:14:21.417Z,220
2017-02-18T11:15:21.382Z,210
2017-02-18T11:16:21.772Z,210
2017-02-18T11:17:21.760Z,220
2017-02-18T11:18:21.768Z,215
2017-02-18T11:19:21.752Z,210
2017-02-18T11:20:21.756Z,200
2017-02-18T11:21:21.337Z,200
2017-02-18T11:22:21.340Z,195
2017-02-18T11:23:21.320Z,195
2017-02-18T11:24:21.722Z,195
2017-02-18T11:25:21.698Z,195
2017-02-18T11:26:21.660Z,190
2017-02-18T11:27:21.692Z,185
2017-02-18T11:28:21.679Z,185
2017-02-18T11:29:21.651Z,180
2017-02-18T11:30:21.629Z,170
2017-02-18T11:31:21.638Z,160
2017-02-18T11:32:21.641Z,155
2017-02-18T11:33:21.640Z,155
2017-02-18T11:34:21.629Z,160
2017-02-18T11:35:21.207Z,165
2017-02-18T11:36:21.589Z,165
2017-02-18T11:37:21.622Z,160
2017-02-18T11:38:21.584Z,160
2017-02-18T11:39:21.570Z,160
2017-02-18T11:40:21.155Z,155
2017-02-18T11:41:21.538Z,155
2017-02-18T11:42:21.554Z,150
2017-02-18T11:43:21.542Z,145
2017-02-18T11:44:21.528Z,140
2017-02-18T11:45:21.520Z,135
2017-02-18T11:46:21.503Z,135
2017-02-18T11:47:21.503Z,140
2017-02-18T11:48:21.484Z,140
2017-02-18T11:49:21.470Z,145
2017-02-18T11:50:21.476Z,145
2017-02-18T11:51:21.435Z,145
2017-02-18T11:52:21.058Z,140
2017-02-18T11:53:21.481Z,135
2017-02-18T11:54:21.051Z,135
2017-02-18T11:55:21.502Z,145
2017-02-18T11:56:21.032Z,125
2017-02-18T11:57:21.433Z,120
2017-02-18T11:58:21.403Z,110
2017-02-18T11:59:21.389Z,90
2017-02-18T12:00:21.386Z,80
2017-02-18T12:01:21.365Z,75
2017-02-18T12:02:21.361Z,85
2017-02-18T12:03:20.975Z,100
2017-02-18T12:04:21.341Z,115
2017-02-18T12:05:20.926Z,125
2017-02-18T12:06:20.963Z,130
2017-02-18T12:07:20.150Z,145
2017-02-18T12:08:20.993Z,155
2017-02-18T12:09:21.292Z,165
2017-02-18T12:10:21.302Z,160
2017-02-18T12:11:21.263Z,150
2017-02-18T12:12:21.284Z,155
2017-02-18T12:13:21.245Z,155
2017-02-18T12:14:21.243Z,150
2017-02-18T12:15:21.274Z,150
2017-02-18T12:16:20.835Z,150
2017-02-18T12:17:20.836Z,140
2017-02-18T12:18:21.221Z,140
2017-02-18T12:19:21.221Z,145
2017-02-18T12:20:20.811Z,145
2017-02-18T12:21:21.194Z,150
2017-02-18T12:22:21.174Z,145
2017-02-18T12:23:21.161Z,150
2017-02-18T12:24:21.162Z,155
2017-02-18T12:25:21.164Z,145
2017-02-18T12:26:21.151Z,145
2017-02-18T12:27:21.116Z,150
2017-02-18T12:28:20.730Z,155
2017-02-18T12:29:21.125Z,160
2017-02-18T12:30:20.724Z,150
2017-02-18T12:31:20.714Z,140
2017-02-18T12:32:20.694Z,140
2017-02-18T12:33:21.072Z,150
2017-02-18T12:34:21.068Z,150
2017-02-18T12:35:21.073Z,150
2017-02-18T12:36:21.050Z,160
2017-02-18T12:37:21.031Z,160
2017-02-18T12:38:20.644Z,155
2017-02-18T12:39:21.028Z,160
2017-02-18T12:40:21.012Z,165
2017-02-18T12:41:21.018Z,170
2017-02-18T12:42:21.002Z,170
2017-02-18T12:43:21.020Z,170
2017-02-18T12:44:20.978Z,175
2017-02-18T12:45:20.952Z,180
2017-02-18T12:46:20.955Z,185
2017-02-18T12:47:20.558Z,190
2017-02-18T12:48:20.533Z,190
2017-02-18T12:49:20.907Z,180
2017-02-18T12:50:20.925Z,180
2017-02-18T12:51:20.910Z,185
2017-02-18T12:52:20.894Z,180
2017-02-18T12:53:20.891Z,160
2017-02-18T12:54:20.875Z,130
2017-02-18T12:55:20.868Z,120
2017-02-18T12:56:20.871Z,110
2017-02-18T12:57:20.843Z,110
2017-02-18T12:58:20.848Z,110
2017-02-18T12:59:20.433Z,110
2017-02-18T13:00:20.413Z,110
2017-02-18T13:01:20.813Z,105
2017-02-18T13:02:20.411Z,105
2017-02-18T13:03:20.801Z,105
2017-02-18T13:04:20.399Z,110
2017-02-18T13:05:20.375Z,100
2017-02-18T13:06:20.385Z,100
2017-02-18T13:07:20.375Z,105
2017-02-18T13:08:20.760Z,105
2017-02-18T13:09:20.740Z,105
2017-02-18T13:10:20.731Z,105
2017-02-18T13:11:20.718Z,100
2017-02-18T13:12:20.734Z,100
2017-02-18T13:13:20.323Z,100
2017-02-18T13:14:20.682Z,100
2017-02-18T13:15:20.683Z,100
2017-02-18T13:16:20.683Z,100
2017-02-18T13:17:20.674Z,100
2017-02-18T13:18:20.259Z,105
2017-02-18T13:19:20.251Z,115
2017-02-18T13:20:20.627Z,120
2017-02-18T13:21:20.634Z,115
2017-02-18T13:22:20.614Z,110
2017-02-18T13:23:20.601Z,105
2017-02-18T13:24:20.581Z,105
2017-02-18T13:25:20.569Z,95
2017-02-18T13:26:20.211Z,95
2017-02-18T13:27:20.162Z,105
2017-02-18T13:28:20.548Z,100
2017-02-18T13:29:20.537Z,95
2017-02-18T13:30:20.539Z,95
2017-02-18T13:31:20.131Z,95
2017-02-18T13:32:20.571Z,90
2017-02-18T13:33:20.532Z,90
2017-02-18T13:34:20.117Z,90
2017-02-18T13:35:20.154Z,85
2017-02-18T13:36:20.103Z,80
2017-02-18T13:37:20.074Z,75
2017-02-18T13:38:20.073Z,75
2017-02-18T13:39:20.062Z,75
2017-02-18T13:40:20.433Z,75
2017-02-18T13:41:20.424Z,75
2017-02-18T13:42:19.628Z,80
2017-02-18T13:43:20.414Z,80
2017-02-18T13:44:20.008Z,80
2017-02-18T13:45:20.025Z,80
2017-02-18T13:46:19.965Z,80
2017-02-18T13:47:19.979Z,75
2017-02-18T13:48:20.413Z,75
2017-02-18T13:49:19.958Z,75
2017-02-18T13:50:20.370Z,70
2017-02-18T13:51:19.961Z,75
2017-02-18T13:52:20.312Z,75
2017-02-18T13:53:20.314Z,75
2017-02-18T13:54:19.898Z,80
2017-02-18T13:55:19.915Z,80
2017-02-18T13:56:20.286Z,80
2017-02-18T13:57:20.265Z,85
2017-02-18T13:58:19.862Z,85
2017-02-18T13:59:20.257Z,85
2017-02-18T14:00:20.239Z,85
2017-02-18T14:01:20.247Z,85
2017-02-18T14:02:20.123Z,90
2017-02-18T14:03:20.224Z,90
2017-02-18T14:04:20.198Z,90
2017-02-18T14:05:19.810Z,85
2017-02-18T14:06:20.158Z,80
2017-02-18T14:07:19.767Z,75
2017-02-18T14:08:19.792Z,75
2017-02-18T14:09:20.175Z,75
2017-02-18T14:10:19.789Z,70
2017-02-18T14:11:20.117Z,70
2017-02-18T14:12:20.113Z,70
2017-02-18T14:13:20.094Z,65
2017-02-18T14:14:20.105Z,65
2017-02-18T14:15:20.095Z,65
2017-02-18T14:16:19.699Z,60
2017-02-18T14:17:20.091Z,65
2017-02-18T14:18:20.076Z,65
2017-02-18T14:19:20.050Z,70
2017-02-18T14:20:19.675Z,70